sensor_id;sensor_type;location;lat;lon;timestamp;P1;durP1;ratioP1;P2;durP2;ratioP2
3081;SDS011;1551;51.046;7.010;2023-04-01T00:00:11;5.20;;;1.50;;
3081;SDS011;1551;51.046;7.010;2023-04-01T00:03:04;3.40;;;1.10;;
3081;SDS011;1551;51.046;7.010;2023-04-01T00:05:54;4.90;;;1.50;;
3081;SDS011;1551;51.046;7.010;2023-04-01T00:08:43;3.30;;;1.10;;
3081;SDS011;1551;51.046;7.010;2023-04-01T00:11:33;3.33;;;1.20;;
3081;SDS011;1551;51.046;7.010;2023-04-01T00:14:22;4.90;;;1.10;;
3081;SDS011;1551;51.046;7.010;2023-04-01T00:17:11;3.40;;;1.10;;
3081;SDS011;1551;51.046;7.010;2023-04-01T00:20:00;4.15;;;1.30;;
3081;SDS011;1551;51.046;7.010;2023-04-01T00:22:50;4.53;;;1.40;;
3081;SDS011;1551;51.046;7.010;2023-04-01T00:25:40;5.03;;;1.88;;
3081;SDS011;1551;51.046;7.010;2023-04-01T00:28:29;2.83;;;1.10;;
3081;SDS011;1551;51.046;7.010;2023-04-01T00:31:19;2.97;;;1.30;;
3081;SDS011;1551;51.046;7.010;2023-04-01T00:34:08;4.28;;;0.98;;
3081;SDS011;1551;51.046;7.010;2023-04-01T00:36:57;5.57;;;1.60;;
3081;SDS011;1551;51.046;7.010;2023-04-01T00:39:46;4.57;;;1.77;;
3081;SDS011;1551;51.046;7.010;2023-04-01T00:42:35;2.85;;;0.95;;
3081;SDS011;1551;51.046;7.010;2023-04-01T00:45:31;3.97;;;1.40;;
3081;SDS011;1551;51.046;7.010;2023-04-01T00:48:36;4.60;;;0.90;;
3081;SDS011;1551;51.046;7.010;2023-04-01T00:51:35;4.38;;;1.60;;
3081;SDS011;1551;51.046;7.010;2023-04-01T00:54:28;2.70;;;1.00;;
3081;SDS011;1551;51.046;7.010;2023-04-01T00:57:21;3.17;;;0.90;;
3081;SDS011;1551;51.046;7.010;2023-04-01T01:00:17;3.38;;;1.10;;
3081;SDS011;1551;51.046;7.010;2023-04-01T01:03:06;3.75;;;1.00;;
3081;SDS011;1551;51.046;7.010;2023-04-01T01:06:03;4.13;;;1.30;;
3081;SDS011;1551;51.046;7.010;2023-04-01T01:09:14;3.90;;;1.38;;
3081;SDS011;1551;51.046;7.010;2023-04-01T01:15:06;3.15;;;1.30;;
3081;SDS011;1551;51.046;7.010;2023-04-01T01:27:27;2.97;;;0.75;;
3081;SDS011;1551;51.046;7.010;2023-04-01T01:33:20;2.65;;;0.60;;
3081;SDS011;1551;51.046;7.010;2023-04-01T01:36:19;3.08;;;0.80;;
3081;SDS011;1551;51.046;7.010;2023-04-01T01:39:10;4.00;;;0.90;;
3081;SDS011;1551;51.046;7.010;2023-04-01T01:42:03;3.80;;;1.10;;
3081;SDS011;1551;51.046;7.010;2023-04-01T01:44:54;1.90;;;0.70;;
3081;SDS011;1551;51.046;7.010;2023-04-01T01:47:48;3.73;;;1.43;;
3081;SDS011;1551;51.046;7.010;2023-04-01T01:50:39;3.50;;;1.02;;
3081;SDS011;1551;51.046;7.010;2023-04-01T01:53:32;4.78;;;1.10;;
3081;SDS011;1551;51.046;7.010;2023-04-01T01:56:23;2.90;;;0.90;;
3081;SDS011;1551;51.046;7.010;2023-04-01T01:59:16;3.80;;;0.90;;
3081;SDS011;1551;51.046;7.010;2023-04-01T02:02:08;3.47;;;1.20;;
3081;SDS011;1551;51.046;7.010;2023-04-01T02:05:02;3.72;;;1.40;;
3081;SDS011;1551;51.046;7.010;2023-04-01T02:08:55;3.20;;;1.30;;
3081;SDS011;1551;51.046;7.010;2023-04-01T02:11:17;6.00;;;1.55;;
3081;SDS011;1551;51.046;7.010;2023-04-01T02:14:14;4.70;;;2.00;;
3081;SDS011;1551;51.046;7.010;2023-04-01T02:17:10;3.60;;;1.60;;
3081;SDS011;1551;51.046;7.010;2023-04-01T02:23:11;5.50;;;1.70;;
3081;SDS011;1551;51.046;7.010;2023-04-01T02:26:01;5.85;;;1.67;;
3081;SDS011;1551;51.046;7.010;2023-04-01T02:28:54;3.73;;;1.13;;
3081;SDS011;1551;51.046;7.010;2023-04-01T02:31:45;2.42;;;1.10;;
3081;SDS011;1551;51.046;7.010;2023-04-01T02:34:34;5.73;;;1.63;;
3081;SDS011;1551;51.046;7.010;2023-04-01T02:37:24;3.38;;;1.20;;
3081;SDS011;1551;51.046;7.010;2023-04-01T02:40:13;3.33;;;1.60;;
3081;SDS011;1551;51.046;7.010;2023-04-01T02:43:03;4.60;;;1.52;;
3081;SDS011;1551;51.046;7.010;2023-04-01T02:45:52;4.90;;;1.77;;
3081;SDS011;1551;51.046;7.010;2023-04-01T02:48:41;4.90;;;1.50;;
3081;SDS011;1551;51.046;7.010;2023-04-01T02:51:31;2.38;;;1.10;;
3081;SDS011;1551;51.046;7.010;2023-04-01T02:54:21;2.40;;;0.80;;
3081;SDS011;1551;51.046;7.010;2023-04-01T02:57:10;3.10;;;0.70;;
3081;SDS011;1551;51.046;7.010;2023-04-01T02:59:59;2.00;;;0.50;;
3081;SDS011;1551;51.046;7.010;2023-04-01T03:02:47;2.70;;;0.70;;
3081;SDS011;1551;51.046;7.010;2023-04-01T03:05:36;3.60;;;0.50;;
3081;SDS011;1551;51.046;7.010;2023-04-01T03:08:26;3.35;;;0.70;;
3081;SDS011;1551;51.046;7.010;2023-04-01T03:11:16;2.65;;;0.75;;
3081;SDS011;1551;51.046;7.010;2023-04-01T03:14:05;2.20;;;0.50;;
3081;SDS011;1551;51.046;7.010;2023-04-01T03:16:55;2.28;;;0.70;;
3081;SDS011;1551;51.046;7.010;2023-04-01T03:19:44;3.50;;;0.80;;
3081;SDS011;1551;51.046;7.010;2023-04-01T03:22:34;2.53;;;0.90;;
3081;SDS011;1551;51.046;7.010;2023-04-01T03:25:24;2.20;;;0.70;;
3081;SDS011;1551;51.046;7.010;2023-04-01T03:28:13;3.60;;;0.97;;
3081;SDS011;1551;51.046;7.010;2023-04-01T03:31:03;4.13;;;1.70;;
3081;SDS011;1551;51.046;7.010;2023-04-01T03:33:59;4.03;;;1.50;;
3081;SDS011;1551;51.046;7.010;2023-04-01T03:36:49;4.50;;;1.60;;
3081;SDS011;1551;51.046;7.010;2023-04-01T03:39:40;3.55;;;1.55;;
3081;SDS011;1551;51.046;7.010;2023-04-01T03:42:29;4.70;;;1.50;;
3081;SDS011;1551;51.046;7.010;2023-04-01T03:45:20;3.50;;;1.80;;
3081;SDS011;1551;51.046;7.010;2023-04-01T03:48:09;3.20;;;1.00;;
3081;SDS011;1551;51.046;7.010;2023-04-01T03:50:58;2.90;;;1.00;;
3081;SDS011;1551;51.046;7.010;2023-04-01T03:53:48;2.30;;;0.60;;
3081;SDS011;1551;51.046;7.010;2023-04-01T03:56:37;3.00;;;0.70;;
3081;SDS011;1551;51.046;7.010;2023-04-01T03:59:27;2.50;;;0.60;;
3081;SDS011;1551;51.046;7.010;2023-04-01T04:02:17;2.00;;;0.40;;
3081;SDS011;1551;51.046;7.010;2023-04-01T04:05:06;2.13;;;0.60;;
3081;SDS011;1551;51.046;7.010;2023-04-01T04:07:55;2.70;;;0.40;;
3081;SDS011;1551;51.046;7.010;2023-04-01T04:10:44;2.50;;;0.60;;
3081;SDS011;1551;51.046;7.010;2023-04-01T04:13:34;2.40;;;0.50;;
3081;SDS011;1551;51.046;7.010;2023-04-01T04:16:24;2.38;;;0.60;;
3081;SDS011;1551;51.046;7.010;2023-04-01T04:19:19;1.90;;;0.40;;
3081;SDS011;1551;51.046;7.010;2023-04-01T04:22:08;2.15;;;0.63;;
3081;SDS011;1551;51.046;7.010;2023-04-01T04:24:57;2.30;;;1.08;;
3081;SDS011;1551;51.046;7.010;2023-04-01T04:27:46;2.60;;;0.60;;
3081;SDS011;1551;51.046;7.010;2023-04-01T04:30:37;2.03;;;0.60;;
3081;SDS011;1551;51.046;7.010;2023-04-01T04:33:26;2.20;;;0.50;;
3081;SDS011;1551;51.046;7.010;2023-04-01T04:36:16;2.60;;;0.50;;
3081;SDS011;1551;51.046;7.010;2023-04-01T04:39:06;1.80;;;0.40;;
3081;SDS011;1551;51.046;7.010;2023-04-01T04:41:57;2.20;;;0.63;;
3081;SDS011;1551;51.046;7.010;2023-04-01T04:44:46;4.50;;;0.80;;
3081;SDS011;1551;51.046;7.010;2023-04-01T04:47:35;2.60;;;0.70;;
3081;SDS011;1551;51.046;7.010;2023-04-01T04:50:24;3.20;;;0.60;;
3081;SDS011;1551;51.046;7.010;2023-04-01T04:53:14;2.90;;;0.50;;
3081;SDS011;1551;51.046;7.010;2023-04-01T04:56:04;2.88;;;0.45;;
3081;SDS011;1551;51.046;7.010;2023-04-01T04:59:00;2.00;;;0.43;;
3081;SDS011;1551;51.046;7.010;2023-04-01T05:02:02;2.40;;;0.50;;
3081;SDS011;1551;51.046;7.010;2023-04-01T05:04:52;1.90;;;0.50;;
3081;SDS011;1551;51.046;7.010;2023-04-01T05:07:41;1.95;;;0.50;;
3081;SDS011;1551;51.046;7.010;2023-04-01T05:10:30;2.10;;;0.50;;
3081;SDS011;1551;51.046;7.010;2023-04-01T05:13:20;3.10;;;0.60;;
3081;SDS011;1551;51.046;7.010;2023-04-01T05:16:10;1.77;;;0.40;;
3081;SDS011;1551;51.046;7.010;2023-04-01T05:19:04;2.40;;;0.70;;
3081;SDS011;1551;51.046;7.010;2023-04-01T05:21:54;2.30;;;0.80;;
3081;SDS011;1551;51.046;7.010;2023-04-01T05:24:43;2.40;;;0.60;;
3081;SDS011;1551;51.046;7.010;2023-04-01T05:27:33;2.27;;;0.70;;
3081;SDS011;1551;51.046;7.010;2023-04-01T05:30:23;2.65;;;0.70;;
3081;SDS011;1551;51.046;7.010;2023-04-01T05:33:21;2.00;;;0.70;;
3081;SDS011;1551;51.046;7.010;2023-04-01T05:36:11;2.90;;;0.80;;
3081;SDS011;1551;51.046;7.010;2023-04-01T05:39:03;2.50;;;0.70;;
3081;SDS011;1551;51.046;7.010;2023-04-01T05:41:52;1.98;;;0.60;;
3081;SDS011;1551;51.046;7.010;2023-04-01T05:44:41;2.20;;;0.70;;
3081;SDS011;1551;51.046;7.010;2023-04-01T05:47:30;2.33;;;0.70;;
3081;SDS011;1551;51.046;7.010;2023-04-01T05:50:19;3.90;;;0.80;;
3081;SDS011;1551;51.046;7.010;2023-04-01T05:53:08;2.70;;;1.10;;
3081;SDS011;1551;51.046;7.010;2023-04-01T05:56:02;2.75;;;0.88;;
3081;SDS011;1551;51.046;7.010;2023-04-01T05:58:53;3.10;;;0.88;;
3081;SDS011;1551;51.046;7.010;2023-04-01T06:01:45;2.10;;;0.70;;
3081;SDS011;1551;51.046;7.010;2023-04-01T06:04:37;3.20;;;1.00;;
3081;SDS011;1551;51.046;7.010;2023-04-01T06:07:27;2.78;;;1.00;;
3081;SDS011;1551;51.046;7.010;2023-04-01T06:10:18;2.35;;;0.90;;
3081;SDS011;1551;51.046;7.010;2023-04-01T06:16:32;2.60;;;0.80;;
3081;SDS011;1551;51.046;7.010;2023-04-01T06:22:31;2.10;;;0.80;;
3081;SDS011;1551;51.046;7.010;2023-04-01T06:37:40;2.80;;;1.00;;
3081;SDS011;1551;51.046;7.010;2023-04-01T06:44:04;3.10;;;1.00;;
3081;SDS011;1551;51.046;7.010;2023-04-01T06:47:35;2.13;;;0.70;;
3081;SDS011;1551;51.046;7.010;2023-04-01T06:54:47;2.75;;;0.90;;
3081;SDS011;1551;51.046;7.010;2023-04-01T06:57:59;3.35;;;0.98;;
3081;SDS011;1551;51.046;7.010;2023-04-01T07:00:53;3.00;;;0.95;;
3081;SDS011;1551;51.046;7.010;2023-04-01T07:03:52;2.40;;;1.10;;
3081;SDS011;1551;51.046;7.010;2023-04-01T07:06:56;3.45;;;1.30;;
3081;SDS011;1551;51.046;7.010;2023-04-01T07:09:49;2.90;;;1.23;;
3081;SDS011;1551;51.046;7.010;2023-04-01T07:12:54;2.45;;;1.10;;
3081;SDS011;1551;51.046;7.010;2023-04-01T07:16:12;2.33;;;0.90;;
3081;SDS011;1551;51.046;7.010;2023-04-01T07:22:34;2.30;;;0.90;;
3081;SDS011;1551;51.046;7.010;2023-04-01T07:26:14;3.47;;;1.30;;
3081;SDS011;1551;51.046;7.010;2023-04-01T07:29:26;3.00;;;1.10;;
3081;SDS011;1551;51.046;7.010;2023-04-01T07:32:38;2.90;;;1.10;;
3081;SDS011;1551;51.046;7.010;2023-04-01T07:35:35;3.40;;;1.60;;
3081;SDS011;1551;51.046;7.010;2023-04-01T07:45:28;2.80;;;1.58;;
3081;SDS011;1551;51.046;7.010;2023-04-01T07:48:19;4.57;;;1.60;;
3081;SDS011;1551;51.046;7.010;2023-04-01T07:54:46;4.10;;;1.30;;
3081;SDS011;1551;51.046;7.010;2023-04-01T07:57:38;2.80;;;1.30;;
3081;SDS011;1551;51.046;7.010;2023-04-01T08:03:58;3.10;;;1.40;;
3081;SDS011;1551;51.046;7.010;2023-04-01T08:07:13;2.28;;;1.10;;
3081;SDS011;1551;51.046;7.010;2023-04-01T08:10:33;3.28;;;1.45;;
3081;SDS011;1551;51.046;7.010;2023-04-01T08:17:31;2.70;;;1.40;;
3081;SDS011;1551;51.046;7.010;2023-04-01T08:23:41;2.50;;;1.33;;
3081;SDS011;1551;51.046;7.010;2023-04-01T08:26:41;3.90;;;1.30;;
3081;SDS011;1551;51.046;7.010;2023-04-01T08:29:38;3.20;;;1.30;;
3081;SDS011;1551;51.046;7.010;2023-04-01T08:32:36;3.90;;;1.35;;
3081;SDS011;1551;51.046;7.010;2023-04-01T08:35:31;4.93;;;1.27;;
3081;SDS011;1551;51.046;7.010;2023-04-01T08:48:23;2.20;;;1.00;;
3081;SDS011;1551;51.046;7.010;2023-04-01T09:05:26;2.23;;;1.00;;
3081;SDS011;1551;51.046;7.010;2023-04-01T09:11:50;2.75;;;0.80;;
3081;SDS011;1551;51.046;7.010;2023-04-01T09:15:29;2.85;;;0.90;;
3081;SDS011;1551;51.046;7.010;2023-04-01T09:18:24;2.40;;;1.00;;
3081;SDS011;1551;51.046;7.010;2023-04-01T09:28:01;2.00;;;0.80;;
3081;SDS011;1551;51.046;7.010;2023-04-01T09:40:26;2.63;;;1.15;;
3081;SDS011;1551;51.046;7.010;2023-04-01T09:43:30;2.40;;;1.20;;
3081;SDS011;1551;51.046;7.010;2023-04-01T09:50:03;2.70;;;1.50;;
3081;SDS011;1551;51.046;7.010;2023-04-01T10:06:27;3.20;;;2.03;;
3081;SDS011;1551;51.046;7.010;2023-04-01T10:10:23;3.03;;;1.88;;
3081;SDS011;1551;51.046;7.010;2023-04-01T10:13:30;2.58;;;1.63;;
3081;SDS011;1551;51.046;7.010;2023-04-01T10:32:21;3.60;;;1.65;;
3081;SDS011;1551;51.046;7.010;2023-04-01T10:35:42;4.60;;;1.70;;
3081;SDS011;1551;51.046;7.010;2023-04-01T10:58:55;5.30;;;3.13;;
3081;SDS011;1551;51.046;7.010;2023-04-01T11:05:57;4.70;;;3.20;;
3081;SDS011;1551;51.046;7.010;2023-04-01T11:15:37;4.20;;;2.70;;
3081;SDS011;1551;51.046;7.010;2023-04-01T11:29:24;4.00;;;2.80;;
3081;SDS011;1551;51.046;7.010;2023-04-01T11:32:43;4.13;;;2.47;;
3081;SDS011;1551;51.046;7.010;2023-04-01T11:43:06;5.03;;;2.90;;
3081;SDS011;1551;51.046;7.010;2023-04-01T11:46:28;3.60;;;2.50;;
3081;SDS011;1551;51.046;7.010;2023-04-01T11:59:05;4.80;;;2.90;;
3081;SDS011;1551;51.046;7.010;2023-04-01T12:05:24;3.75;;;2.13;;
3081;SDS011;1551;51.046;7.010;2023-04-01T12:08:27;15.00;;;11.43;;
3081;SDS011;1551;51.046;7.010;2023-04-01T12:18:12;4.13;;;2.10;;
3081;SDS011;1551;51.046;7.010;2023-04-01T12:21:59;4.63;;;2.70;;
3081;SDS011;1551;51.046;7.010;2023-04-01T12:37:29;3.90;;;2.00;;
3081;SDS011;1551;51.046;7.010;2023-04-01T12:44:13;4.40;;;2.40;;
3081;SDS011;1551;51.046;7.010;2023-04-01T12:47:19;4.00;;;2.85;;
3081;SDS011;1551;51.046;7.010;2023-04-01T12:56:43;3.80;;;2.20;;
3081;SDS011;1551;51.046;7.010;2023-04-01T13:06:17;3.90;;;2.80;;
3081;SDS011;1551;51.046;7.010;2023-04-01T13:09:21;3.40;;;2.80;;
3081;SDS011;1551;51.046;7.010;2023-04-01T13:18:57;5.40;;;4.90;;
3081;SDS011;1551;51.046;7.010;2023-04-01T13:21:59;4.55;;;2.58;;
3081;SDS011;1551;51.046;7.010;2023-04-01T13:25:14;4.45;;;2.67;;
3081;SDS011;1551;51.046;7.010;2023-04-01T13:28:39;3.80;;;3.30;;
3081;SDS011;1551;51.046;7.010;2023-04-01T13:31:38;4.63;;;2.80;;
3081;SDS011;1551;51.046;7.010;2023-04-01T13:34:32;4.38;;;3.42;;
3081;SDS011;1551;51.046;7.010;2023-04-01T13:37:32;4.25;;;3.25;;
3081;SDS011;1551;51.046;7.010;2023-04-01T13:43:57;8.52;;;6.47;;
3081;SDS011;1551;51.046;7.010;2023-04-01T13:47:09;9.10;;;7.20;;
3081;SDS011;1551;51.046;7.010;2023-04-01T13:56:41;10.23;;;8.65;;
3081;SDS011;1551;51.046;7.010;2023-04-01T13:59:41;4.72;;;4.15;;
3081;SDS011;1551;51.046;7.010;2023-04-01T14:03:03;4.40;;;4.00;;
3081;SDS011;1551;51.046;7.010;2023-04-01T14:06:30;5.70;;;5.10;;
3081;SDS011;1551;51.046;7.010;2023-04-01T14:09:36;4.50;;;3.80;;
3081;SDS011;1551;51.046;7.010;2023-04-01T14:12:35;4.40;;;3.70;;
3081;SDS011;1551;51.046;7.010;2023-04-01T14:15:38;5.00;;;4.47;;
3081;SDS011;1551;51.046;7.010;2023-04-01T14:28:29;5.13;;;4.63;;
3081;SDS011;1551;51.046;7.010;2023-04-01T14:31:38;3.42;;;2.83;;
3081;SDS011;1551;51.046;7.010;2023-04-01T14:44:05;6.03;;;4.65;;
3081;SDS011;1551;51.046;7.010;2023-04-01T14:47:25;4.30;;;3.85;;
3081;SDS011;1551;51.046;7.010;2023-04-01T14:50:23;6.05;;;5.25;;
3081;SDS011;1551;51.046;7.010;2023-04-01T14:53:26;3.63;;;3.00;;
3081;SDS011;1551;51.046;7.010;2023-04-01T14:56:34;5.60;;;3.80;;
3081;SDS011;1551;51.046;7.010;2023-04-01T14:59:34;4.88;;;3.40;;
3081;SDS011;1551;51.046;7.010;2023-04-01T15:09:04;4.57;;;3.83;;
3081;SDS011;1551;51.046;7.010;2023-04-01T15:31:14;5.00;;;4.18;;
3081;SDS011;1551;51.046;7.010;2023-04-01T15:34:26;4.18;;;3.20;;
3081;SDS011;1551;51.046;7.010;2023-04-01T15:37:35;4.88;;;3.78;;
3081;SDS011;1551;51.046;7.010;2023-04-01T15:40:30;5.82;;;4.20;;
3081;SDS011;1551;51.046;7.010;2023-04-01T15:46:50;8.20;;;5.53;;
3081;SDS011;1551;51.046;7.010;2023-04-01T15:49:44;6.95;;;5.55;;
3081;SDS011;1551;51.046;7.010;2023-04-01T15:56:23;5.53;;;4.35;;
3081;SDS011;1551;51.046;7.010;2023-04-01T16:02:49;5.67;;;3.20;;
3081;SDS011;1551;51.046;7.010;2023-04-01T16:24:49;13.18;;;10.35;;
3081;SDS011;1551;51.046;7.010;2023-04-01T16:31:12;6.07;;;4.38;;
3081;SDS011;1551;51.046;7.010;2023-04-01T16:34:39;6.05;;;4.60;;
3081;SDS011;1551;51.046;7.010;2023-04-01T16:46:43;8.10;;;6.72;;
3081;SDS011;1551;51.046;7.010;2023-04-01T16:49:39;5.35;;;4.47;;
3081;SDS011;1551;51.046;7.010;2023-04-01T16:52:36;6.70;;;4.05;;
3081;SDS011;1551;51.046;7.010;2023-04-01T16:58:48;5.15;;;3.25;;
3081;SDS011;1551;51.046;7.010;2023-04-01T17:01:54;5.82;;;3.70;;
3081;SDS011;1551;51.046;7.010;2023-04-01T17:04:54;4.20;;;3.35;;
3081;SDS011;1551;51.046;7.010;2023-04-01T17:11:16;4.20;;;3.50;;
3081;SDS011;1551;51.046;7.010;2023-04-01T17:14:13;4.85;;;3.85;;
3081;SDS011;1551;51.046;7.010;2023-04-01T17:17:23;4.90;;;4.03;;
3081;SDS011;1551;51.046;7.010;2023-04-01T17:23:28;3.90;;;3.22;;
3081;SDS011;1551;51.046;7.010;2023-04-01T17:26:37;4.90;;;3.63;;
3081;SDS011;1551;51.046;7.010;2023-04-01T17:29:56;11.38;;;7.10;;
3081;SDS011;1551;51.046;7.010;2023-04-01T17:33:25;6.40;;;4.60;;
3081;SDS011;1551;51.046;7.010;2023-04-01T17:36:39;5.22;;;4.40;;
3081;SDS011;1551;51.046;7.010;2023-04-01T17:45:55;4.10;;;2.92;;
3081;SDS011;1551;51.046;7.010;2023-04-01T17:48:49;4.80;;;3.58;;
3081;SDS011;1551;51.046;7.010;2023-04-01T17:51:55;6.20;;;5.07;;
3081;SDS011;1551;51.046;7.010;2023-04-01T17:54:51;6.15;;;5.00;;
3081;SDS011;1551;51.046;7.010;2023-04-01T17:58:09;5.88;;;5.25;;
3081;SDS011;1551;51.046;7.010;2023-04-01T18:01:30;5.70;;;3.90;;
3081;SDS011;1551;51.046;7.010;2023-04-01T18:07:57;5.40;;;3.92;;
3081;SDS011;1551;51.046;7.010;2023-04-01T18:17:36;5.63;;;5.03;;
3081;SDS011;1551;51.046;7.010;2023-04-01T18:20:54;7.70;;;6.90;;
3081;SDS011;1551;51.046;7.010;2023-04-01T18:27:11;7.80;;;5.40;;
3081;SDS011;1551;51.046;7.010;2023-04-01T18:33:36;4.40;;;3.40;;
3081;SDS011;1551;51.046;7.010;2023-04-01T18:36:44;4.55;;;4.00;;
3081;SDS011;1551;51.046;7.010;2023-04-01T18:39:52;8.17;;;7.40;;
3081;SDS011;1551;51.046;7.010;2023-04-01T18:43:22;5.90;;;4.90;;
3081;SDS011;1551;51.046;7.010;2023-04-01T18:46:29;6.00;;;5.40;;
3081;SDS011;1551;51.046;7.010;2023-04-01T18:49:38;5.90;;;4.50;;
3081;SDS011;1551;51.046;7.010;2023-04-01T18:55:56;6.67;;;5.67;;
3081;SDS011;1551;51.046;7.010;2023-04-01T18:59:01;7.00;;;5.90;;
3081;SDS011;1551;51.046;7.010;2023-04-01T19:33:58;5.60;;;4.78;;
3081;SDS011;1551;51.046;7.010;2023-04-01T19:37:09;5.90;;;5.00;;
3081;SDS011;1551;51.046;7.010;2023-04-01T19:43:39;5.93;;;4.45;;
3081;SDS011;1551;51.046;7.010;2023-04-01T19:46:55;5.47;;;4.57;;
3081;SDS011;1551;51.046;7.010;2023-04-01T19:50:00;7.13;;;4.30;;
3081;SDS011;1551;51.046;7.010;2023-04-01T19:52:51;5.60;;;4.85;;
3081;SDS011;1551;51.046;7.010;2023-04-01T19:55:47;5.38;;;3.80;;
3081;SDS011;1551;51.046;7.010;2023-04-01T19:58:54;5.10;;;4.60;;
3081;SDS011;1551;51.046;7.010;2023-04-01T20:01:59;4.43;;;3.70;;
3081;SDS011;1551;51.046;7.010;2023-04-01T20:05:19;4.05;;;3.13;;
3081;SDS011;1551;51.046;7.010;2023-04-01T20:08:48;4.77;;;3.60;;
3081;SDS011;1551;51.046;7.010;2023-04-01T20:14:47;4.70;;;3.30;;
3081;SDS011;1551;51.046;7.010;2023-04-01T20:17:43;4.25;;;3.15;;
3081;SDS011;1551;51.046;7.010;2023-04-01T20:20:34;4.30;;;3.10;;
3081;SDS011;1551;51.046;7.010;2023-04-01T20:26:30;3.70;;;2.80;;
3081;SDS011;1551;51.046;7.010;2023-04-01T20:46:07;5.22;;;3.40;;
3081;SDS011;1551;51.046;7.010;2023-04-01T20:49:53;5.30;;;4.00;;
3081;SDS011;1551;51.046;7.010;2023-04-01T20:52:32;4.80;;;3.83;;
3081;SDS011;1551;51.046;7.010;2023-04-01T21:11:18;38.78;;;24.33;;
3081;SDS011;1551;51.046;7.010;2023-04-01T21:27:09;6.25;;;5.43;;
3081;SDS011;1551;51.046;7.010;2023-04-01T21:33:41;6.80;;;5.60;;
3081;SDS011;1551;51.046;7.010;2023-04-01T21:46:46;8.00;;;5.60;;
3081;SDS011;1551;51.046;7.010;2023-04-01T22:13:13;7.10;;;5.90;;
3081;SDS011;1551;51.046;7.010;2023-04-01T22:16:16;6.10;;;5.13;;
3081;SDS011;1551;51.046;7.010;2023-04-01T22:19:19;7.20;;;6.00;;
3081;SDS011;1551;51.046;7.010;2023-04-01T22:25:57;6.90;;;6.18;;
3081;SDS011;1551;51.046;7.010;2023-04-01T22:32:00;7.35;;;5.97;;
3081;SDS011;1551;51.046;7.010;2023-04-01T22:35:05;6.57;;;5.18;;
3081;SDS011;1551;51.046;7.010;2023-04-01T22:38:05;7.63;;;5.60;;
3081;SDS011;1551;51.046;7.010;2023-04-01T22:41:37;5.63;;;4.85;;
3081;SDS011;1551;51.046;7.010;2023-04-01T22:48:20;5.97;;;4.43;;
3081;SDS011;1551;51.046;7.010;2023-04-01T22:51:22;5.38;;;4.28;;
3081;SDS011;1551;51.046;7.010;2023-04-01T23:00:18;5.50;;;4.32;;
3081;SDS011;1551;51.046;7.010;2023-04-01T23:03:17;5.80;;;4.10;;
3081;SDS011;1551;51.046;7.010;2023-04-01T23:06:12;5.43;;;4.50;;
3081;SDS011;1551;51.046;7.010;2023-04-01T23:09:53;6.13;;;4.40;;
3081;SDS011;1551;51.046;7.010;2023-04-01T23:12:22;4.90;;;4.03;;
3081;SDS011;1551;51.046;7.010;2023-04-01T23:15:14;4.95;;;3.92;;
3081;SDS011;1551;51.046;7.010;2023-04-01T23:21:25;6.30;;;5.28;;
3081;SDS011;1551;51.046;7.010;2023-04-01T23:27:24;7.35;;;5.05;;
3081;SDS011;1551;51.046;7.010;2023-04-01T23:33:30;6.93;;;5.20;;
3081;SDS011;1551;51.046;7.010;2023-04-01T23:36:20;6.30;;;5.13;;
3081;SDS011;1551;51.046;7.010;2023-04-01T23:42:38;6.70;;;5.10;;
3081;SDS011;1551;51.046;7.010;2023-04-01T23:45:28;6.30;;;5.30;;
3081;SDS011;1551;51.046;7.010;2023-04-01T23:48:17;7.72;;;5.32;;
3081;SDS011;1551;51.046;7.010;2023-04-01T23:57:37;6.30;;;5.55;;
